createdAt,value
2023-09-30T00:03:22.907Z,84.34
2023-09-30T00:07:24.505Z,86.07
2023-09-30T00:11:26.037Z,85.20
2023-09-30T00:15:27.674Z,85.16
2023-09-30T00:19:29.364Z,81.74
2023-09-30T00:23:30.865Z,83.19
2023-09-30T00:27:32.370Z,82.06
2023-09-30T00:31:34.003Z,83.33
2023-09-30T00:35:35.645Z,86.65
2023-09-30T00:39:38.231Z,85.40
2023-09-30T00:43:39.755Z,85.62
2023-09-30T00:47:41.668Z,86.69
2023-09-30T00:51:48.415Z,83.70
2023-09-30T00:55:52.259Z,84.09
2023-09-30T00:59:54.162Z,86.08
2023-09-30T01:03:56.155Z,84.43
2023-09-30T01:07:58.047Z,86.00
2023-09-30T01:11:59.518Z,82.93
2023-09-30T01:16:04.442Z,82.96
2023-09-30T01:20:07.904Z,83.43
2023-09-30T01:24:09.687Z,85.28
2023-09-30T01:28:11.466Z,85.10
2023-09-30T01:32:14.878Z,84.32
2023-09-30T01:36:18.704Z,84.85
2023-09-30T01:40:20.472Z,85.55
2023-09-30T01:44:21.992Z,83.79
2023-09-30T01:48:23.555Z,86.02
2023-09-30T01:52:25.110Z,85.70
2023-09-30T01:56:26.900Z,85.50
2023-09-30T02:00:29.616Z,84.43
2023-09-30T02:04:32.013Z,86.43
2023-09-30T02:08:33.880Z,84.96
2023-09-30T02:12:35.563Z,84.08
2023-09-30T02:16:39.176Z,84.39
2023-09-30T02:20:41.281Z,85.17
2023-09-30T02:24:42.874Z,82.42
2023-09-30T02:28:44.649Z,83.57
2023-09-30T02:32:48.061Z,84.22
2023-09-30T02:36:49.886Z,85.34
2023-09-30T02:40:52.628Z,84.99
2023-09-30T02:44:54.249Z,88.59
2023-09-30T02:48:55.718Z,91.72
2023-09-30T02:52:57.299Z,93.72
2023-09-30T02:57:00.238Z,93.46
2023-09-30T03:01:01.962Z,94.49
2023-09-30T03:05:03.932Z,95.00
2023-09-30T03:09:05.829Z,94.57
2023-09-30T03:13:09.934Z,95.88
2023-09-30T03:17:12.886Z,98.01
2023-09-30T03:21:15.767Z,100.00
2023-09-30T03:25:18.819Z,100.00
2023-09-30T03:29:20.493Z,100.00
2023-09-30T03:33:22.072Z,100.00
2023-09-30T03:37:23.591Z,100.00
2023-09-30T03:41:25.159Z,100.00
2023-09-30T03:45:27.403Z,100.00
2023-09-30T03:49:29.594Z,100.00
2023-09-30T03:53:31.079Z,100.00
2023-09-30T03:57:34.791Z,100.00
2023-09-30T04:01:36.490Z,100.00
2023-09-30T04:05:38.042Z,98.77
2023-09-30T04:09:39.649Z,100.00
2023-09-30T04:13:41.195Z,99.38
2023-09-30T04:17:42.735Z,99.36
2023-09-30T04:21:44.362Z,100.00
2023-09-30T04:25:45.914Z,100.00
2023-09-30T04:29:47.420Z,99.30
2023-09-30T04:33:52.018Z,100.00
2023-09-30T04:37:53.644Z,100.00
2023-09-30T04:41:55.967Z,99.89
2023-09-30T04:45:58.974Z,100.00
2023-09-30T04:50:00.547Z,100.00
2023-09-30T04:54:03.334Z,100.00
2023-09-30T04:58:06.185Z,100.00
2023-09-30T05:02:07.757Z,100.00
2023-09-30T05:06:09.272Z,100.00
2023-09-30T05:10:14.490Z,100.00
2023-09-30T05:14:17.511Z,100.00
2023-09-30T05:18:19.230Z,100.00
2023-09-30T05:22:24.817Z,100.00
2023-09-30T05:26:26.319Z,100.00
2023-09-30T05:30:27.873Z,100.00
2023-09-30T05:34:29.472Z,98.48
2023-09-30T05:38:32.433Z,99.73
2023-09-30T05:42:34.187Z,100.00
2023-09-30T05:46:35.862Z,100.00
2023-09-30T05:50:38.412Z,100.00
2023-09-30T05:54:39.949Z,100.00
2023-09-30T05:58:42.670Z,100.00
2023-09-30T06:02:45.165Z,99.99
2023-09-30T06:06:46.777Z,100.00
2023-09-30T06:10:48.478Z,100.00
2023-09-30T06:14:49.935Z,99.52
2023-09-30T06:18:52.063Z,98.31
2023-09-30T06:22:56.628Z,98.63
2023-09-30T06:26:58.234Z,99.69
2023-09-30T06:30:59.804Z,98.74
2023-09-30T06:35:01.540Z,97.95
2023-09-30T06:39:06.621Z,98.13
2023-09-30T06:43:08.985Z,95.09
2023-09-30T06:47:13.278Z,95.15
2023-09-30T06:51:18.766Z,95.97
2023-09-30T06:55:20.372Z,96.15
2023-09-30T06:59:21.838Z,92.17
2023-09-30T07:03:26.788Z,91.75
2023-09-30T07:07:29.937Z,92.55
2023-09-30T07:11:34.726Z,92.45
2023-09-30T07:15:36.576Z,91.04
2023-09-30T07:19:38.327Z,91.10
2023-09-30T07:23:39.947Z,90.13
2023-09-30T07:27:41.525Z,91.02
2023-09-30T07:31:43.112Z,90.73
2023-09-30T07:35:44.696Z,91.15
2023-09-30T07:39:46.559Z,90.26
2023-09-30T07:43:48.298Z,89.39
2023-09-30T07:47:50.508Z,88.60
2023-09-30T07:51:52.265Z,90.00
2023-09-30T07:55:55.261Z,90.98
2023-09-30T07:59:56.821Z,86.72
2023-09-30T08:03:58.534Z,85.33
2023-09-30T08:08:00.099Z,87.18
2023-09-30T08:12:01.765Z,85.37
2023-09-30T08:16:03.564Z,86.60
2023-09-30T08:20:05.840Z,85.88
2023-09-30T08:24:07.789Z,85.88
2023-09-30T08:28:10.475Z,85.07
2023-09-30T08:32:12.001Z,83.46
2023-09-30T08:36:13.757Z,81.85
2023-09-30T08:40:15.378Z,85.44
2023-09-30T08:44:17.411Z,83.89
2023-09-30T08:48:19.180Z,78.09
2023-09-30T08:52:21.319Z,77.67
2023-09-30T08:56:26.047Z,77.75
2023-09-30T09:00:27.577Z,74.30
2023-09-30T09:04:29.449Z,73.48
2023-09-30T09:08:30.987Z,72.79
2023-09-30T09:12:35.182Z,72.44
2023-09-30T09:16:36.776Z,69.49
2023-09-30T09:20:38.566Z,69.06
2023-09-30T09:24:40.479Z,68.04
2023-09-30T09:28:43.716Z,66.67
2023-09-30T09:32:58.817Z,66.27
2023-09-30T09:37:00.512Z,64.87
2023-09-30T09:41:02.112Z,66.07
2023-09-30T09:45:06.464Z,64.89
2023-09-30T09:49:08.919Z,63.43
2023-09-30T09:53:11.403Z,63.50
2023-09-30T09:57:13.306Z,64.56
2023-09-30T10:01:15.001Z,63.74
2023-09-30T10:05:17.894Z,65.24
2023-09-30T10:09:24.165Z,64.75
2023-09-30T10:14:04.009Z,64.97
2023-09-30T10:18:15.832Z,60.94
2023-09-30T10:22:21.606Z,61.85
2023-09-30T10:26:25.454Z,61.10
2023-09-30T10:30:27.328Z,61.51
2023-09-30T10:34:29.069Z,59.88
2023-09-30T10:38:41.500Z,60.19
2023-09-30T10:42:55.885Z,58.12
2023-09-30T10:47:04.030Z,60.19
2023-09-30T10:51:13.032Z,57.23
2023-09-30T10:55:20.306Z,55.66
2023-09-30T10:59:26.555Z,53.22
2023-09-30T11:03:28.212Z,53.78
2023-09-30T11:07:31.072Z,55.02
2023-09-30T11:11:44.806Z,52.83
2023-09-30T11:15:47.272Z,51.74
2023-09-30T11:19:49.860Z,53.16
2023-09-30T11:23:52.360Z,49.46
2023-09-30T11:27:53.922Z,49.41
2023-09-30T11:31:56.353Z,49.37
2023-09-30T11:36:06.691Z,50.70
2023-09-30T11:40:13.047Z,52.00
2023-09-30T11:44:16.172Z,53.97
2023-09-30T11:48:20.318Z,54.53
2023-09-30T11:52:28.507Z,54.76
2023-09-30T11:56:30.547Z,56.35
2023-09-30T12:00:32.354Z,53.97
2023-09-30T12:04:34.174Z,54.55
2023-09-30T12:08:35.806Z,56.35
2023-09-30T12:12:37.431Z,55.85
2023-09-30T12:16:39.959Z,55.11
2023-09-30T12:20:42.442Z,54.59
2023-09-30T12:24:43.991Z,52.31
2023-09-30T12:28:45.521Z,51.74
2023-09-30T12:32:47.279Z,52.69
2023-09-30T12:36:49.130Z,51.79
2023-09-30T12:40:50.703Z,54.67
2023-09-30T12:44:52.192Z,57.07
2023-09-30T12:48:54.083Z,56.58
2023-09-30T12:52:55.598Z,54.32
2023-09-30T12:56:57.088Z,54.05
2023-09-30T13:01:08.068Z,55.13
2023-09-30T13:05:21.062Z,54.74
2023-09-30T13:09:22.983Z,53.84
2023-09-30T13:13:24.658Z,52.79
2023-09-30T13:17:26.430Z,52.79
2023-09-30T13:21:28.006Z,53.05
2023-09-30T13:25:29.690Z,51.99
2023-09-30T13:29:31.172Z,52.93
2023-09-30T13:33:32.760Z,54.45
2023-09-30T13:37:34.599Z,53.31
2023-09-30T13:41:36.917Z,52.13
2023-09-30T13:45:38.821Z,52.55
2023-09-30T13:49:40.524Z,53.13
2023-09-30T13:53:44.138Z,54.09
2023-09-30T13:57:49.594Z,56.47
2023-09-30T14:01:51.256Z,54.95
2023-09-30T14:05:54.301Z,55.38
2023-09-30T14:09:55.802Z,53.61
2023-09-30T14:13:57.426Z,52.21
2023-09-30T14:18:03.353Z,51.05
2023-09-30T14:22:06.184Z,51.27
2023-09-30T14:26:11.849Z,52.37
2023-09-30T14:30:13.894Z,50.41
2023-09-30T14:34:16.252Z,51.33
2023-09-30T14:38:18.036Z,52.11
2023-09-30T14:42:19.566Z,51.39
2023-09-30T14:46:21.714Z,53.00
2023-09-30T14:50:23.289Z,54.17
2023-09-30T14:54:25.176Z,54.79
2023-09-30T14:58:26.692Z,54.51
2023-09-30T15:02:28.228Z,54.80
2023-09-30T15:06:30.117Z,57.21
2023-09-30T15:10:31.761Z,56.03
2023-09-30T15:14:33.617Z,56.64
2023-09-30T15:18:35.156Z,56.96
2023-09-30T15:22:37.228Z,57.49
2023-09-30T15:26:38.758Z,60.54
2023-09-30T15:30:40.873Z,62.14
2023-09-30T15:34:42.416Z,62.80
2023-09-30T15:38:44.000Z,64.00
2023-09-30T15:42:47.071Z,63.20
2023-09-30T15:46:48.758Z,65.02
2023-09-30T15:50:50.433Z,64.05
2023-09-30T15:54:53.582Z,62.45
2023-09-30T15:58:55.265Z,63.04
2023-09-30T16:02:56.765Z,63.34
2023-09-30T16:06:58.438Z,66.44
2023-09-30T16:10:59.941Z,65.82
2023-09-30T16:15:05.072Z,66.78
2023-09-30T16:19:06.615Z,66.97
2023-09-30T16:23:08.086Z,65.65
2023-09-30T16:27:09.608Z,65.29
2023-09-30T16:31:11.654Z,65.58
2023-09-30T16:35:13.300Z,69.29
2023-09-30T16:39:15.863Z,69.35
2023-09-30T16:43:18.127Z,70.37
2023-09-30T16:47:19.684Z,68.32
2023-09-30T16:51:22.300Z,66.79
2023-09-30T16:55:23.794Z,64.46
2023-09-30T16:59:25.586Z,64.53
2023-09-30T17:03:29.739Z,64.01
2023-09-30T17:07:31.272Z,64.87
2023-09-30T17:11:32.771Z,63.30
2023-09-30T17:15:34.390Z,62.06
2023-09-30T17:19:35.883Z,62.91
2023-09-30T17:23:37.329Z,60.37
2023-09-30T17:27:38.985Z,60.57
2023-09-30T17:31:40.643Z,62.51
2023-09-30T17:35:42.253Z,60.93
2023-09-30T17:39:46.281Z,61.03
2023-09-30T17:43:47.801Z,63.73
2023-09-30T17:47:49.248Z,62.89
2023-09-30T17:51:50.934Z,65.03
2023-09-30T17:55:52.456Z,65.04
2023-09-30T17:59:53.911Z,65.89
2023-09-30T18:03:55.441Z,65.01
2023-09-30T18:07:58.516Z,65.29
2023-09-30T18:12:00.063Z,67.54
2023-09-30T18:16:05.217Z,66.49
2023-09-30T18:20:09.375Z,67.02
2023-09-30T18:24:10.963Z,69.40
2023-09-30T18:28:12.471Z,71.13
2023-09-30T18:32:14.024Z,71.07
2023-09-30T18:36:15.912Z,70.53
2023-09-30T18:40:17.447Z,71.05
2023-09-30T18:44:18.942Z,71.29
2023-09-30T18:48:20.444Z,69.18
2023-09-30T18:52:21.950Z,71.27
2023-09-30T18:56:23.587Z,70.33
2023-09-30T19:00:25.801Z,71.18
2023-09-30T19:04:27.381Z,71.50
2023-09-30T19:08:28.913Z,71.90
2023-09-30T19:12:30.480Z,72.75
2023-09-30T19:16:32.245Z,73.59
2023-09-30T19:20:33.962Z,71.98
2023-09-30T19:24:35.463Z,74.19
2023-09-30T19:28:37.710Z,70.31
2023-09-30T19:32:39.369Z,73.28
2023-09-30T19:36:41.003Z,73.49
2023-09-30T19:40:42.504Z,75.17
2023-09-30T19:44:45.989Z,75.47
2023-09-30T19:48:47.514Z,72.46
2023-09-30T19:52:49.035Z,74.54
2023-09-30T19:56:50.485Z,74.57
2023-09-30T20:00:52.048Z,74.41
2023-09-30T20:04:53.904Z,75.41
2023-09-30T20:08:56.624Z,75.75
2023-09-30T20:12:58.267Z,74.93
2023-09-30T20:16:59.976Z,76.21
2023-09-30T20:21:01.566Z,78.41
2023-09-30T20:25:03.242Z,78.28
2023-09-30T20:29:08.287Z,76.91
2023-09-30T20:33:09.744Z,76.75
2023-09-30T20:37:11.229Z,77.96
2023-09-30T20:41:12.750Z,76.55
2023-09-30T20:45:14.450Z,77.53
2023-09-30T20:49:18.869Z,76.61
2023-09-30T20:53:20.542Z,76.06
2023-09-30T20:57:22.023Z,74.59
2023-09-30T21:01:23.751Z,76.29
2023-09-30T21:05:25.480Z,77.34
2023-09-30T21:09:27.124Z,79.30
2023-09-30T21:13:28.619Z,79.32
2023-09-30T21:17:30.374Z,81.56
2023-09-30T21:21:32.320Z,83.91
2023-09-30T21:25:36.811Z,83.56
2023-09-30T21:29:38.360Z,81.61
2023-09-30T21:33:39.822Z,83.05
2023-09-30T21:37:41.391Z,83.03
2023-09-30T21:41:42.890Z,83.11
2023-09-30T21:45:44.675Z,83.61
2023-09-30T21:49:46.222Z,86.30
2023-09-30T21:53:47.746Z,86.01
2023-09-30T21:57:49.253Z,84.43
2023-09-30T22:01:50.766Z,86.64
2023-09-30T22:05:52.663Z,84.11
2023-09-30T22:09:54.723Z,84.67
2023-09-30T22:13:57.032Z,83.39
2023-09-30T22:18:00.887Z,84.62
2023-09-30T22:22:11.417Z,87.00
2023-09-30T22:26:14.070Z,88.11
2023-09-30T22:30:15.673Z,87.67
2023-09-30T22:34:17.244Z,90.29
2023-09-30T22:38:19.074Z,89.01
2023-09-30T22:42:20.545Z,90.66
2023-09-30T22:46:22.110Z,89.98
2023-09-30T22:50:24.002Z,92.16
2023-09-30T22:54:25.458Z,89.82
2023-09-30T22:58:29.711Z,90.30
2023-09-30T23:13:51.432Z,92.26
2023-09-30T23:17:53.827Z,90.38
2023-09-30T23:21:55.782Z,88.25
2023-09-30T23:25:57.329Z,88.44
2023-09-30T23:30:00.453Z,87.36
2023-09-30T23:34:06.324Z,88.37
2023-09-30T23:38:08.959Z,88.73
2023-09-30T23:42:10.634Z,91.43
2023-09-30T23:46:13.032Z,92.43
2023-09-30T23:50:17.786Z,91.01
2023-09-30T23:54:21.041Z,91.41
2023-09-30T23:58:22.575Z,93.61
